Time;durP1;ratioP1;P1;durP2;ratioP2;P2;SDS_P1;SDS_P2;PMS_P1;PMS_P2;Temp;Humidity;BMP_temperature;BMP_pressure;BME280_temperature;BME280_humidity;BME280_pressure;Samples;Min_cycle;Max_cycle;Signal;HPM_P1;HPM_P2
2022/11/21 00:00:40;;;;;;;27.67;17.02;;;0.40;99.90;;;;;;5081385;28;20071;-39
2022/11/21 00:03:08;;;;;;;32.88;18.10;;;0.40;99.90;;;;;;5080336;28;20021;-39
2022/11/21 00:05:37;;;;;;;34.83;19.17;;;0.40;99.90;;;;;;5079702;28;20479;-39
2022/11/21 00:08:02;;;;;;;31.13;17.95;;;0.40;99.90;;;;;;5079737;28;20067;-39
2022/11/21 00:10:28;;;;;;;34.03;18.17;;;0.40;99.90;;;;;;5080275;28;20048;-39
2022/11/21 00:12:55;;;;;;;38.03;19.45;;;0.40;99.90;;;;;;5081418;28;20446;-39
2022/11/21 00:15:21;;;;;;;36.70;19.80;;;0.40;99.90;;;;;;5079364;28;20012;-39
2022/11/21 00:17:47;;;;;;;32.25;17.52;;;0.40;99.90;;;;;;5080648;28;20024;-39
2022/11/21 00:20:12;;;;;;;33.90;18.17;;;0.40;99.90;;;;;;5080384;28;20538;-39
2022/11/21 00:22:37;;;;;;;30.38;18.50;;;0.50;99.90;;;;;;5077908;28;20021;-39
2022/11/21 00:25:04;;;;;;;34.75;19.08;;;0.50;99.90;;;;;;5082530;28;20024;-39
2022/11/21 00:27:29;;;;;;;31.13;17.58;;;0.50;99.90;;;;;;5082279;28;20107;-39
2022/11/21 00:29:55;;;;;;;35.08;17.95;;;0.50;99.90;;;;;;5080677;28;20124;-39
2022/11/21 00:32:20;;;;;;;35.70;18.40;;;0.50;99.90;;;;;;5079196;28;20100;-39
2022/11/21 00:34:46;;;;;;;29.40;17.70;;;0.50;99.90;;;;;;5080413;28;20028;-39
2022/11/21 00:37:11;;;;;;;31.65;18.80;;;0.50;99.90;;;;;;5080539;28;20028;-40
2022/11/21 00:39:37;;;;;;;36.42;19.08;;;0.50;99.90;;;;;;5078424;28;20021;-39
2022/11/21 00:42:02;;;;;;;34.22;19.15;;;0.40;99.90;;;;;;5080076;28;20474;-39
2022/11/21 00:44:28;;;;;;;34.53;19.02;;;0.50;99.90;;;;;;5082333;28;20024;-39
2022/11/21 00:46:53;;;;;;;33.28;18.92;;;0.50;99.90;;;;;;5081365;28;20021;-39
2022/11/21 00:49:18;;;;;;;33.95;19.00;;;0.50;99.90;;;;;;5082249;28;20021;-39
2022/11/21 00:51:44;;;;;;;37.25;19.55;;;0.50;99.90;;;;;;5080751;28;20022;-39
2022/11/21 00:54:10;;;;;;;35.45;19.52;;;0.50;99.90;;;;;;5078909;28;20027;-39
2022/11/21 00:56:35;;;;;;;34.45;20.13;;;0.50;99.90;;;;;;5078933;28;20426;-39
2022/11/21 00:59:00;;;;;;;33.67;20.52;;;0.50;99.90;;;;;;5080563;28;20039;-39
2022/11/21 01:01:26;;;;;;;36.47;20.27;;;0.50;99.90;;;;;;5079022;28;20036;-39
2022/11/21 01:03:51;;;;;;;38.53;19.65;;;0.50;99.90;;;;;;5078975;28;20054;-39
2022/11/21 01:06:17;;;;;;;37.35;19.90;;;0.50;99.90;;;;;;5080761;28;20053;-40
2022/11/21 01:08:44;;;;;;;39.15;21.63;;;0.50;99.90;;;;;;5078890;28;20036;-40
2022/11/21 01:11:16;;;;;;;33.33;19.45;;;0.50;99.90;;;;;;5077302;28;20058;-39
2022/11/21 01:13:42;;;;;;;33.63;18.10;;;0.50;99.90;;;;;;5078466;28;20074;-39
2022/11/21 01:16:14;;;;;;;34.95;20.00;;;0.50;99.90;;;;;;5081014;28;20020;-39
2022/11/21 01:18:40;;;;;;;34.08;18.42;;;0.50;99.90;;;;;;5080185;28;20104;-39
2022/11/21 01:21:13;;;;;;;33.10;18.85;;;0.50;99.90;;;;;;5081618;28;20116;-39
2022/11/21 01:23:39;;;;;;;32.65;19.80;;;0.50;99.90;;;;;;5078348;28;20047;-39
2022/11/21 01:26:07;;;;;;;31.48;18.42;;;0.50;99.90;;;;;;5079904;28;20043;-40
2022/11/21 01:28:32;;;;;;;29.38;16.70;;;0.50;99.90;;;;;;5079860;28;20033;-40
2022/11/21 01:31:14;;;;;;;32.33;18.40;;;0.50;99.90;;;;;;5080193;28;20048;-40
2022/11/21 01:33:39;;;;;;;29.67;17.45;;;0.50;99.90;;;;;;5074562;28;20028;-40
2022/11/21 01:36:19;;;;;;;33.10;17.83;;;0.50;99.90;;;;;;5077066;28;20025;-40
2022/11/21 01:38:50;;;;;;;31.67;18.10;;;0.50;99.90;;;;;;5078796;28;20035;-40
2022/11/21 01:41:21;;;;;;;36.08;18.92;;;0.50;99.90;;;;;;5077327;28;20036;-40
2022/11/21 01:43:47;;;;;;;35.67;19.80;;;0.50;99.90;;;;;;5083445;28;20023;-40
2022/11/21 01:46:18;;;;;;;33.67;18.45;;;0.50;99.90;;;;;;5078455;28;20036;-40
2022/11/21 01:48:46;;;;;;;;;;;0.40;99.90;;;;;;5078516;28;20032;-40
2022/11/21 01:51:33;;;;;;;36.92;19.30;;;0.40;99.90;;;;;;5078189;28;20338;-40
2022/11/21 01:54:04;;;;;;;36.42;18.00;;;0.40;99.90;;;;;;5079926;28;20216;-40
2022/11/21 01:56:36;;;;;;;31.85;19.63;;;0.40;99.90;;;;;;5078615;28;20024;-40
2022/11/21 01:59:03;;;;;;;31.75;17.45;;;0.50;99.90;;;;;;5077867;28;20016;-40
2022/11/21 02:01:30;;;;;;;32.38;17.83;;;0.50;99.90;;;;;;5078215;28;20023;-40
2022/11/21 02:03:58;;;;;;;33.80;19.25;;;0.50;99.90;;;;;;5079579;28;20507;-40
2022/11/21 02:06:24;;;;;;;34.70;19.73;;;0.50;99.90;;;;;;5077338;28;20040;-40
2022/11/21 02:08:50;;;;;;;27.15;16.40;;;0.50;99.90;;;;;;5078326;28;20020;-40
2022/11/21 02:11:26;;;;;;;32.08;17.80;;;0.50;99.90;;;;;;5080740;28;20035;-40
2022/11/21 02:13:52;;;;;;;30.88;17.73;;;0.50;99.90;;;;;;5083687;28;20024;-40
2022/11/21 02:16:17;;;;;;;31.45;18.55;;;0.50;99.90;;;;;;5077228;28;20071;-40
2022/11/21 02:18:43;;;;;;;30.50;17.38;;;0.50;99.90;;;;;;5078788;28;20073;-40
2022/11/21 02:21:26;;;;;;;36.30;18.55;;;0.50;99.90;;;;;;5077334;28;20024;-40
2022/11/21 02:24:29;;;;;;;28.58;17.55;;;0.50;99.90;;;;;;5078490;28;20108;-40
2022/11/21 02:26:54;;;;;;;31.33;18.05;;;0.50;99.90;;;;;;5068914;28;20089;-40
2022/11/21 02:29:20;;;;;;;33.50;19.50;;;0.50;99.90;;;;;;5078601;28;20055;-40
2022/11/21 02:31:46;;;;;;;28.25;16.40;;;0.50;99.90;;;;;;5077422;28;20016;-40
2022/11/21 02:34:11;;;;;;;34.90;19.52;;;0.50;99.90;;;;;;5076410;28;20012;-40
2022/11/21 02:36:39;;;;;;;37.08;20.15;;;0.40;99.90;;;;;;5078858;28;20440;-40
2022/11/21 02:39:28;;;;;;;35.78;19.15;;;0.40;99.90;;;;;;5076955;28;20158;-40
2022/11/21 02:42:13;;;;;;;36.47;19.30;;;0.40;99.90;;;;;;5079617;28;20029;-40
2022/11/21 02:44:59;;;;;;;36.45;20.42;;;0.30;99.90;;;;;;5081002;28;20106;-40
2022/11/21 02:47:25;;;;;;;35.15;19.92;;;0.30;99.90;;;;;;5076900;28;20036;-40
2022/11/21 02:50:10;;;;;;;32.50;18.48;;;0.30;99.90;;;;;;5077468;28;20063;-40
2022/11/21 02:52:35;;;;;;;34.20;19.00;;;0.30;99.90;;;;;;5077614;28;20035;-40
2022/11/21 02:55:01;;;;;;;35.55;19.75;;;0.20;99.90;;;;;;5083559;28;20026;-40
2022/11/21 02:57:26;;;;;;;31.50;18.05;;;0.30;99.90;;;;;;5075976;28;20032;-40
2022/11/21 02:59:52;;;;;;;32.55;19.35;;;0.30;99.90;;;;;;5078926;28;20067;-40
2022/11/21 03:02:17;;;;;;;32.40;17.92;;;0.30;99.90;;;;;;5081287;28;20348;-40
2022/11/21 03:04:44;;;;;;;33.67;18.92;;;0.30;99.90;;;;;;5075881;28;20081;-40
2022/11/21 03:07:09;;;;;;;36.50;20.77;;;0.30;99.90;;;;;;5077506;28;20483;-40
2022/11/21 03:09:34;;;;;;;33.45;20.08;;;0.30;99.90;;;;;;5077674;28;20033;-40
2022/11/21 03:12:08;;;;;;;38.17;20.27;;;0.30;99.90;;;;;;5076132;28;20455;-40
2022/11/21 03:14:34;;;;;;;38.28;20.58;;;0.30;99.90;;;;;;5077353;28;20028;-40
2022/11/21 03:17:00;;;;;;;34.60;20.15;;;0.30;99.90;;;;;;5078116;28;20028;-40
2022/11/21 03:19:25;;;;;;;36.13;20.58;;;0.40;99.90;;;;;;5076295;28;20089;-40
2022/11/21 03:21:50;;;;;;;38.95;20.27;;;0.40;99.90;;;;;;5075960;28;20395;-40
2022/11/21 03:24:16;;;;;;;41.72;20.73;;;0.40;99.90;;;;;;5077971;28;20283;-40
2022/11/21 03:26:41;;;;;;;37.90;21.08;;;0.30;99.90;;;;;;5075719;28;20023;-40
2022/11/21 03:29:07;;;;;;;36.15;20.85;;;0.40;99.90;;;;;;5078257;28;20440;-40
2022/11/21 03:31:32;;;;;;;37.72;21.08;;;0.40;99.90;;;;;;5081929;28;20035;-40
2022/11/21 03:33:58;;;;;;;33.42;20.85;;;0.30;99.90;;;;;;5078304;28;20036;-40
2022/11/21 03:36:23;;;;;;;39.58;21.52;;;0.30;99.90;;;;;;5076091;28;20381;-40
2022/11/21 03:38:49;;;;;;;39.22;21.48;;;0.30;99.90;;;;;;5077254;28;20054;-40
2022/11/21 03:41:29;;;;;;;36.95;21.90;;;0.20;99.90;;;;;;5078259;28;20378;-40
2022/11/21 03:44:03;;;;;;;;;;;0.20;99.90;;;;;;5083428;28;20497;-40
2022/11/21 03:46:31;;;;;;;37.92;20.30;;;0.20;99.90;;;;;;5073458;28;20392;-40
2022/11/21 03:48:57;;;;;;;39.50;20.55;;;0.10;99.90;;;;;;5072590;28;20028;-40
2022/11/21 03:51:22;;;;;;;42.13;23.10;;;0.10;99.90;;;;;;5072835;28;20020;-40
2022/11/21 03:53:48;;;;;;;33.05;20.27;;;0.00;99.90;;;;;;5072457;28;20025;-40
2022/11/21 03:56:14;;;;;;;43.33;22.67;;;0.00;99.90;;;;;;5071397;28;20520;-40
2022/11/21 03:58:40;;;;;;;39.72;21.10;;;0.00;99.90;;;;;;5077394;28;20055;-40
2022/11/21 04:01:05;;;;;;;43.72;22.70;;;0.00;99.90;;;;;;5071980;28;20055;-40
2022/11/21 04:03:31;;;;;;;39.08;20.17;;;0.00;99.90;;;;;;5072046;28;20021;-40
2022/11/21 04:05:56;;;;;;;37.20;22.00;;;0.00;99.90;;;;;;5070919;28;20494;-40
2022/11/21 04:08:22;;;;;;;37.85;21.02;;;-0.10;99.90;;;;;;5078784;28;20040;-40
2022/11/21 04:10:49;;;;;;;43.22;22.45;;;-0.10;99.90;;;;;;5068634;28;20021;-40
2022/11/21 04:13:15;;;;;;;41.75;20.77;;;-0.20;99.90;;;;;;5069037;28;20059;-40
2022/11/21 04:15:41;;;;;;;40.22;22.38;;;-0.30;99.90;;;;;;5069507;28;20024;-40
2022/11/21 04:18:07;;;;;;;41.97;22.45;;;-0.30;99.90;;;;;;5086661;28;20016;-40
2022/11/21 04:20:32;;;;;;;41.05;22.15;;;-0.40;99.90;;;;;;5087146;28;20047;-40
2022/11/21 04:22:58;;;;;;;38.42;22.40;;;-0.40;99.90;;;;;;5087227;28;20032;-40
2022/11/21 04:25:23;;;;;;;41.38;23.27;;;-0.50;99.90;;;;;;5072943;28;20036;-39
2022/11/21 04:27:49;;;;;;;43.25;23.98;;;-0.60;99.90;;;;;;5081962;28;20410;-39
2022/11/21 04:30:14;;;;;;;40.90;21.73;;;-0.60;99.90;;;;;;5084586;28;20111;-40
2022/11/21 04:32:40;;;;;;;41.70;22.35;;;-0.70;99.90;;;;;;5081072;28;20289;-40
2022/11/21 04:35:06;;;;;;;44.13;22.00;;;-0.70;99.90;;;;;;5079435;28;20021;-40
2022/11/21 04:37:31;;;;;;;42.72;23.88;;;-0.80;99.90;;;;;;5078576;28;20085;-40
2022/11/21 04:39:57;;;;;;;40.63;22.25;;;-0.80;99.90;;;;;;5080577;28;20017;-39
2022/11/21 04:42:23;;;;;;;40.20;22.50;;;-0.80;99.90;;;;;;5083628;28;20039;-39
2022/11/21 04:44:48;;;;;;;42.83;21.98;;;-0.90;99.90;;;;;;5082514;28;20020;-40
2022/11/21 04:47:14;;;;;;;41.97;23.83;;;-0.90;99.90;;;;;;5080699;28;20524;-40
2022/11/21 04:49:39;;;;;;;42.85;23.42;;;-1.00;99.90;;;;;;5081704;28;20045;-39
2022/11/21 04:52:05;;;;;;;38.38;21.13;;;-1.00;99.90;;;;;;5082862;28;20052;-40
2022/11/21 04:54:30;;;;;;;44.20;23.58;;;-1.00;99.90;;;;;;5079790;28;20028;-40
2022/11/21 04:56:56;;;;;;;50.53;24.65;;;-1.10;99.90;;;;;;5080294;28;20020;-40
2022/11/21 04:59:21;;;;;;;43.58;23.92;;;-1.10;99.90;;;;;;5078038;28;20029;-40
2022/11/21 05:01:47;;;;;;;42.90;23.48;;;-1.20;99.90;;;;;;5080080;28;20087;-40
2022/11/21 05:04:12;;;;;;;41.80;22.30;;;-1.10;99.90;;;;;;5079189;28;20043;-39
2022/11/21 05:06:38;;;;;;;45.28;23.42;;;-1.20;99.90;;;;;;5077696;28;20105;-39
2022/11/21 05:09:03;;;;;;;43.15;21.90;;;-1.20;99.90;;;;;;5078172;28;20036;-40
2022/11/21 05:14:12;;;;;;;49.03;21.67;;;-1.20;99.90;;;;;;5079440;28;20063;-40
2022/11/21 05:16:38;;;;;;;41.00;22.65;;;-1.20;99.90;;;;;;5076904;28;20065;-39
2022/11/21 05:19:03;;;;;;;45.67;23.33;;;-1.20;99.90;;;;;;5082145;28;20285;-39
2022/11/21 05:21:29;;;;;;;40.08;21.05;;;-1.20;99.90;;;;;;5081790;28;20052;-39
2022/11/21 05:23:54;;;;;;;43.10;22.23;;;-1.20;99.90;;;;;;5078639;28;20062;-38
2022/11/21 05:26:20;;;;;;;44.28;22.48;;;-1.20;99.90;;;;;;5080166;28;20527;-39
2022/11/21 05:28:47;;;;;;;43.90;22.25;;;-1.20;99.90;;;;;;5077947;28;20028;-39
2022/11/21 05:31:12;;;;;;;44.78;23.50;;;-1.30;99.90;;;;;;5078620;28;20032;-39
2022/11/21 05:33:38;;;;;;;44.53;22.55;;;-1.20;99.90;;;;;;5077298;28;20082;-39
2022/11/21 05:36:04;;;;;;;43.15;22.60;;;-1.40;99.90;;;;;;5086924;28;20028;-39
2022/11/21 05:38:29;;;;;;;44.55;22.40;;;-1.30;99.90;;;;;;5078954;28;20028;-39
2022/11/21 05:40:56;;;;;;;42.35;22.13;;;-1.30;99.90;;;;;;5078093;28;20111;-39
2022/11/21 05:46:05;;;;;;;41.00;21.00;;;-1.40;99.90;;;;;;5069930;28;20097;-39
2022/11/21 05:48:33;;;;;;;45.03;23.92;;;-1.40;99.90;;;;;;5073570;28;20020;-39
2022/11/21 05:50:58;;;;;;;39.17;20.88;;;-1.40;99.90;;;;;;5087888;28;20387;-39
2022/11/21 05:53:24;;;;;;;44.28;21.83;;;-1.40;99.90;;;;;;5081678;28;20036;-39
2022/11/21 05:55:49;;;;;;;42.63;21.88;;;-1.50;99.90;;;;;;5085034;28;20474;-39
2022/11/21 05:58:15;;;;;;;51.70;24.00;;;-1.50;99.90;;;;;;5089032;28;20017;-38
2022/11/21 06:00:41;;;;;;;59.42;24.73;;;-1.50;99.90;;;;;;5089132;28;20391;-38
2022/11/21 06:03:27;;;;;;;50.10;25.52;;;-1.50;99.90;;;;;;5089499;28;20049;-38
2022/11/21 06:05:59;;;;;;;49.47;23.80;;;-1.50;99.90;;;;;;5089506;28;20016;-39
2022/11/21 06:08:26;;;;;;;51.03;23.90;;;-1.60;99.90;;;;;;5088332;28;20051;-39
2022/11/21 06:10:52;;;;;;;51.72;24.95;;;-1.70;99.90;;;;;;5088837;28;20095;-39
2022/11/21 06:13:21;;;;;;;51.67;23.00;;;-1.60;99.90;;;;;;5087987;28;20024;-40
2022/11/21 06:16:01;;;;;;;57.05;24.65;;;-1.70;99.90;;;;;;5089042;28;20020;-39
2022/11/21 06:18:27;;;;;;;57.28;24.15;;;-1.70;99.90;;;;;;5091774;28;20367;-39
2022/11/21 06:20:53;;;;;;;50.45;23.05;;;-1.70;99.90;;;;;;5101425;28;20030;-39
2022/11/21 06:23:19;;;;;;;53.00;24.30;;;-1.70;99.90;;;;;;5097528;28;20147;-39
2022/11/21 06:25:45;;;;;;;57.22;27.05;;;-1.70;99.90;;;;;;5081455;28;20506;-39
2022/11/21 06:28:11;;;;;;;52.50;23.77;;;-1.70;99.90;;;;;;5080642;28;20087;-39
2022/11/21 06:30:36;;;;;;;50.92;24.58;;;-1.80;99.90;;;;;;5073719;28;20029;-39
2022/11/21 06:33:04;;;;;;;54.88;25.67;;;-1.80;99.90;;;;;;5087792;28;20039;-39
2022/11/21 06:35:30;;;;;;;88.10;28.08;;;-1.80;99.90;;;;;;5104490;28;20024;-39
2022/11/21 06:37:57;;;;;;;51.50;25.08;;;-1.80;99.90;;;;;;5086640;28;20028;-39
2022/11/21 06:40:23;;;;;;;50.40;25.50;;;-1.80;99.90;;;;;;5093475;28;20016;-39
2022/11/21 06:42:48;;;;;;;52.55;23.65;;;-1.80;99.90;;;;;;5095786;28;20020;-40
2022/11/21 06:45:14;;;;;;;60.90;26.75;;;-1.80;99.90;;;;;;5096954;28;20393;-39
2022/11/21 06:47:39;;;;;;;61.08;26.05;;;-1.80;99.90;;;;;;5099790;28;20028;-40
2022/11/21 06:50:05;;;;;;;56.55;27.63;;;-1.70;99.90;;;;;;5101772;28;20680;-40
2022/11/21 06:52:34;;;;;;;56.03;26.42;;;-1.70;99.90;;;;;;5110161;28;20145;-40
2022/11/21 06:55:00;;;;;;;56.50;26.83;;;-1.70;99.90;;;;;;5104589;28;20027;-40
2022/11/21 06:57:25;;;;;;;63.38;26.55;;;-1.70;99.90;;;;;;5096144;28;20477;-40
2022/11/21 06:59:51;;;;;;;54.72;26.02;;;-1.70;99.90;;;;;;5080648;28;20039;-40
2022/11/21 07:02:16;;;;;;;54.20;25.95;;;-1.70;99.90;;;;;;5091965;28;20055;-39
2022/11/21 07:04:41;;;;;;;55.72;25.50;;;-1.70;99.90;;;;;;5104151;28;20035;-40
2022/11/21 07:07:07;;;;;;;53.90;26.17;;;-1.70;99.90;;;;;;5087398;28;20111;-40
2022/11/21 07:09:34;;;;;;;59.47;26.85;;;-1.70;99.90;;;;;;5086411;28;20028;-41
2022/11/21 07:15:26;;;;;;;56.95;26.42;;;-1.60;99.90;;;;;;5083812;28;20131;-39
2022/11/21 07:17:52;;;;;;;58.83;26.30;;;-1.60;99.90;;;;;;5077885;28;20581;-39
2022/11/21 07:20:17;;;;;;;58.72;25.50;;;-1.70;99.90;;;;;;5076723;28;20051;-39
2022/11/21 07:22:43;;;;;;;57.42;25.20;;;-1.60;99.90;;;;;;5083340;28;20047;-39
2022/11/21 07:25:09;;;;;;;68.55;25.60;;;-1.60;99.90;;;;;;5085333;28;20744;-39
2022/11/21 07:27:35;;;;;;;64.90;24.65;;;-1.60;99.90;;;;;;5085576;28;20024;-39
2022/11/21 07:30:00;;;;;;;53.80;24.63;;;-1.60;99.90;;;;;;5085352;28;20039;-39
2022/11/21 07:32:27;;;;;;;49.40;24.15;;;-1.70;99.90;;;;;;5085472;28;20058;-39
2022/11/21 07:34:52;;;;;;;54.65;24.55;;;-1.70;99.90;;;;;;5085513;28;20031;-39
2022/11/21 07:37:18;;;;;;;56.10;25.77;;;-1.70;99.90;;;;;;5082508;28;20409;-39
2022/11/21 07:39:44;;;;;;;46.63;22.77;;;-1.70;99.90;;;;;;5084791;28;20020;-39
2022/11/21 07:42:09;;;;;;;51.33;23.70;;;-1.70;99.90;;;;;;5085441;28;20039;-39
2022/11/21 07:44:35;;;;;;;47.28;22.38;;;-1.60;99.90;;;;;;5084908;28;20424;-39
2022/11/21 07:47:02;;;;;;;45.50;22.20;;;-1.60;99.90;;;;;;5085607;28;20391;-40
2022/11/21 07:49:27;;;;;;;48.10;23.88;;;-1.60;99.90;;;;;;5092030;28;20024;-40
2022/11/21 07:51:53;;;;;;;46.15;22.10;;;-1.50;99.90;;;;;;5084783;28;20051;-40
2022/11/21 07:54:18;;;;;;;41.65;21.15;;;-1.50;99.90;;;;;;5084879;28;20059;-40
2022/11/21 07:56:44;;;;;;;46.75;22.27;;;-1.50;99.90;;;;;;5085198;28;20342;-40
2022/11/21 07:59:10;;;;;;;45.22;21.83;;;-1.60;99.90;;;;;;5084354;28;20020;-40
2022/11/21 08:01:35;;;;;;;46.00;22.88;;;-1.50;99.90;;;;;;5084415;28;20191;-40
2022/11/21 08:04:01;;;;;;;48.33;24.95;;;-1.50;99.90;;;;;;5083617;28;20043;-40
2022/11/21 08:06:26;;;;;;;51.58;22.42;;;-1.40;99.90;;;;;;5084350;28;20389;-40
2022/11/21 08:08:55;;;;;;;45.95;22.35;;;-1.40;99.90;;;;;;5084472;28;20121;-40
2022/11/21 08:11:20;;;;;;;48.55;23.13;;;-1.30;99.90;;;;;;5084232;28;20265;-40
2022/11/21 08:13:46;;;;;;;43.17;21.73;;;-1.20;99.90;;;;;;5085165;28;20070;-40
2022/11/21 08:16:12;;;;;;;44.70;23.05;;;-1.10;99.90;;;;;;5084931;28;20451;-40
2022/11/21 08:18:37;;;;;;;42.15;21.80;;;-1.00;99.90;;;;;;5085064;28;20025;-40
2022/11/21 08:21:04;;;;;;;43.10;22.55;;;-0.90;99.90;;;;;;5082834;28;20454;-40
2022/11/21 08:23:30;;;;;;;44.10;22.67;;;-0.90;99.90;;;;;;5072029;28;20039;-40
2022/11/21 08:25:56;;;;;;;46.72;22.48;;;-0.80;99.90;;;;;;5071315;28;20366;-40
2022/11/21 08:28:22;;;;;;;42.95;22.40;;;-0.90;99.90;;;;;;5071576;28;20035;-40
2022/11/21 08:30:48;;;;;;;43.15;22.00;;;-0.80;99.90;;;;;;5069767;28;20142;-40
2022/11/21 08:33:13;;;;;;;45.05;22.02;;;-0.60;99.90;;;;;;5069957;28;20041;-40
2022/11/21 08:35:41;;;;;;;36.70;20.00;;;-0.60;99.90;;;;;;5071016;28;20036;-40
2022/11/21 08:38:07;;;;;;;40.22;20.08;;;-0.40;99.90;;;;;;5070197;28;20120;-40
2022/11/21 08:40:34;;;;;;;42.47;19.85;;;-0.30;99.90;;;;;;5067958;28;20131;-40
2022/11/21 08:43:02;;;;;;;48.70;22.13;;;-0.20;99.90;;;;;;5070538;28;20024;-40
2022/11/21 08:45:28;;;;;;;40.72;21.92;;;-0.10;99.90;;;;;;5070844;28;20063;-40
2022/11/21 08:47:54;;;;;;;39.40;21.40;;;-0.10;99.90;;;;;;5070861;28;20032;-40
2022/11/21 08:50:21;;;;;;;43.35;22.08;;;0.00;99.90;;;;;;5069009;28;20485;-40
2022/11/21 08:52:47;;;;;;;39.90;21.13;;;0.00;99.90;;;;;;5070441;28;20047;-40
2022/11/21 08:55:12;;;;;;;40.72;21.02;;;-0.10;99.90;;;;;;5070799;28;20516;-40
2022/11/21 08:57:39;;;;;;;49.45;23.25;;;0.00;99.90;;;;;;5070169;28;20032;-40
2022/11/21 09:00:06;;;;;;;43.90;22.83;;;0.00;99.90;;;;;;5069447;28;20482;-40
2022/11/21 09:02:31;;;;;;;40.08;20.65;;;0.10;99.90;;;;;;5070349;28;20036;-40
2022/11/21 09:04:57;;;;;;;44.80;23.52;;;0.30;99.90;;;;;;5070342;28;20088;-40
2022/11/21 09:07:22;;;;;;;40.13;22.63;;;0.40;99.90;;;;;;5069131;28;20028;-40
2022/11/21 09:09:48;;;;;;;38.50;20.90;;;0.40;99.90;;;;;;5070626;28;20058;-40
2022/11/21 09:12:14;;;;;;;43.95;23.13;;;0.60;99.90;;;;;;5070606;28;20119;-40
2022/11/21 09:20:08;;;;;;;39.53;20.60;;;0.90;99.90;;;;;;5069498;28;20035;-40
2022/11/21 09:22:33;;;;;;;43.17;22.27;;;0.90;99.90;;;;;;5070439;28;20124;-40
2022/11/21 09:24:59;;;;;;;41.15;21.48;;;1.00;99.90;;;;;;5069769;28;20509;-40
2022/11/21 09:27:24;;;;;;;40.60;21.80;;;1.00;99.90;;;;;;5069981;28;20201;-41
2022/11/21 09:29:50;;;;;;;37.58;19.50;;;0.80;99.90;;;;;;5069884;28;20059;-40
2022/11/21 09:32:15;;;;;;;36.40;19.50;;;0.70;99.90;;;;;;5070151;28;20028;-40
2022/11/21 09:34:41;;;;;;;35.95;19.73;;;1.00;99.90;;;;;;5068755;28;20032;-40
2022/11/21 09:37:06;;;;;;;37.42;19.52;;;1.10;99.90;;;;;;5069621;28;20020;-40
2022/11/21 09:39:33;;;;;;;41.67;20.92;;;1.00;99.90;;;;;;5069329;28;20112;-40
2022/11/21 09:42:18;;;;;;;37.10;18.80;;;1.00;99.90;;;;;;5070155;28;20028;-41
2022/11/21 09:45:08;;;;;;;34.45;18.23;;;1.30;99.90;;;;;;5068899;28;20028;-40
2022/11/21 09:47:46;;;;;;;31.80;17.95;;;1.70;99.90;;;;;;5064411;28;20610;-41
2022/11/21 09:50:11;;;;;;;35.30;18.05;;;2.20;99.90;;;;;;5066666;28;20039;-40
2022/11/21 09:52:38;;;;;;;28.52;16.55;;;2.40;99.90;;;;;;5069442;28;20025;-41
2022/11/21 09:55:20;;;;;;;28.23;15.95;;;2.60;99.90;;;;;;5069556;28;20386;-40
2022/11/21 09:57:48;;;;;;;26.85;15.80;;;3.00;99.90;;;;;;5069409;28;20024;-41
2022/11/21 10:00:20;;;;;;;31.98;17.08;;;2.90;99.90;;;;;;5067520;28;20461;-40
2022/11/21 10:02:45;;;;;;;31.35;16.60;;;2.60;99.90;;;;;;5069177;28;20016;-40
2022/11/21 10:05:13;;;;;;;29.98;16.35;;;2.50;99.90;;;;;;5068454;28;20043;-40
2022/11/21 10:07:39;;;;;;;30.17;17.50;;;2.40;99.90;;;;;;5068863;28;20028;-40
2022/11/21 10:10:47;;;;;;;32.20;17.33;;;2.40;99.90;;;;;;5068632;28;20497;-41
2022/11/21 10:13:27;;;;;;;32.75;17.52;;;2.10;99.90;;;;;;5069177;28;20021;-40
2022/11/21 10:15:56;;;;;;;33.22;18.25;;;2.00;99.90;;;;;;5069233;28;20021;-40
2022/11/21 10:18:52;;;;;;;37.55;19.52;;;1.80;99.90;;;;;;5061780;28;20017;-40
2022/11/21 10:21:38;;;;;;;39.20;19.67;;;1.90;99.90;;;;;;5066233;28;20051;-41
2022/11/21 10:24:21;;;;;;;40.40;20.20;;;1.80;99.90;;;;;;5069165;28;20103;-40
2022/11/21 10:26:52;;;;;;;38.13;21.83;;;2.00;99.90;;;;;;5067846;28;20094;-40
2022/11/21 10:29:40;;;;;;;36.53;20.23;;;2.40;99.90;;;;;;5068494;28;20486;-41
2022/11/21 10:32:29;;;;;;;37.08;21.38;;;2.40;99.90;;;;;;5069177;28;20039;-40
2022/11/21 10:35:00;;;;;;;40.63;23.67;;;2.40;99.90;;;;;;5068694;28;20032;-40
2022/11/21 10:37:36;;;;;;;44.58;23.98;;;2.60;99.90;;;;;;5069030;28;20028;-40
2022/11/21 10:40:27;;;;;;;43.80;23.48;;;2.50;99.90;;;;;;5068299;28;20024;-41
2022/11/21 10:42:58;;;;;;;39.42;22.77;;;2.70;99.90;;;;;;5068471;28;20506;-41
2022/11/21 10:45:25;;;;;;;39.33;22.67;;;3.00;99.90;;;;;;5068772;28;20033;-40
2022/11/21 10:47:51;;;;;;;34.10;20.80;;;3.00;99.90;;;;;;5069196;28;20035;-41
2022/11/21 10:50:49;;;;;;;35.75;20.60;;;3.20;99.90;;;;;;5067458;28;20051;-41
2022/11/21 10:56:14;;;;;;;29.05;16.88;;;3.40;99.90;;;;;;5068924;28;20055;-41
2022/11/21 10:58:51;;;;;;;37.55;23.05;;;3.70;99.90;;;;;;5068712;28;20016;-41
2022/11/21 11:01:21;;;;;;;37.95;21.58;;;3.00;99.90;;;;;;5068211;28;20028;-40
2022/11/21 11:04:03;;;;;;;37.25;20.88;;;2.70;99.90;;;;;;5068628;28;20028;-40
2022/11/21 11:06:29;;;;;;;32.85;18.63;;;2.90;99.90;;;;;;5068179;28;20021;-40
2022/11/21 11:08:54;;;;;;;31.48;19.77;;;3.40;99.90;;;;;;5068576;28;20103;-41
2022/11/21 11:11:21;;;;;;;30.42;18.38;;;3.40;99.90;;;;;;5068084;28;20101;-41
2022/11/21 11:13:59;;;;;;;34.30;19.48;;;3.40;99.90;;;;;;5068236;28;20017;-41
2022/11/21 11:16:26;;;;;;;30.92;17.55;;;3.00;99.90;;;;;;5061945;28;20372;-40
2022/11/21 11:18:59;;;;;;;37.25;19.30;;;3.20;99.90;;;;;;5068587;28;20021;-40
2022/11/21 11:21:42;;;;;;;33.33;18.10;;;2.80;99.90;;;;;;5067872;28;20032;-40
2022/11/21 11:24:08;;;;;;;31.98;18.83;;;3.10;99.90;;;;;;5068576;28;20025;-41
2022/11/21 11:26:48;;;;;;;28.17;17.45;;;3.60;99.90;;;;;;5068218;28;20575;-41
2022/11/21 11:29:18;;;;;;;24.50;15.30;;;4.60;99.90;;;;;;5067760;28;20028;-41
2022/11/21 11:31:55;;;;;;;23.48;14.60;;;5.00;99.90;;;;;;5064199;28;20513;-41
2022/11/21 11:34:21;;;;;;;24.75;14.23;;;5.40;99.90;;;;;;5052572;28;20031;-41
2022/11/21 11:37:03;;;;;;;29.50;15.73;;;5.10;99.90;;;;;;5067091;28;20380;-41
2022/11/21 11:39:40;;;;;;;27.08;15.45;;;4.90;99.90;;;;;;5067889;28;20020;-41
2022/11/21 11:48:56;;;;;;;26.05;13.57;;;6.30;99.90;;;;;;5068059;28;20077;-41
2022/11/21 11:51:29;;;;;;;20.73;13.05;;;6.60;99.90;;;;;;5066591;28;20489;-39
2022/11/21 11:54:02;;;;;;;20.48;13.63;;;7.00;99.90;;;;;;5067415;28;20052;-39
2022/11/21 11:56:32;;;;;;;19.70;12.25;;;7.90;99.90;;;;;;5068146;28;20024;-39
2022/11/21 11:59:02;;;;;;;17.83;13.40;;;8.60;98.50;;;;;;5071220;28;20035;-40
2022/11/21 12:01:43;;;;;;;16.92;11.82;;;9.10;96.90;;;;;;5070810;28;20020;-41
2022/11/21 12:04:19;;;;;;;18.55;11.35;;;9.80;95.80;;;;;;5071134;28;20032;-41
2022/11/21 12:07:10;;;;;;;15.30;11.30;;;9.90;93.70;;;;;;5071648;28;20108;-41
2022/11/21 12:09:46;;;;;;;;;;;9.20;93.00;;;;;;5071534;28;20464;-41
2022/11/21 12:12:34;;;;;;;16.35;10.82;;;8.50;93.80;;;;;;5071849;28;19966;-41
2022/11/21 12:18:35;;;;;;;14.02;9.55;;;7.40;95.50;;;;;;5071699;28;20327;-40
2022/11/21 12:21:20;;;;;;;18.65;11.68;;;6.70;96.60;;;;;;5070362;28;20036;-40
2022/11/21 12:23:53;;;;;;;19.33;10.63;;;6.10;97.20;;;;;;5071268;28;20024;-39
2022/11/21 12:26:19;;;;;;;16.48;10.65;;;5.90;98.20;;;;;;5063546;28;20032;-39
2022/11/21 12:29:03;;;;;;;19.92;11.40;;;5.60;98.80;;;;;;5071617;28;20397;-39
2022/11/21 12:31:57;;;;;;;17.02;11.30;;;5.00;99.90;;;;;;5070534;28;20060;-39
2022/11/21 12:34:35;;;;;;;21.95;12.35;;;4.50;99.90;;;;;;5051182;28;20024;-39
2022/11/21 12:37:19;;;;;;;19.85;11.40;;;4.40;99.90;;;;;;5051446;28;20013;-39
2022/11/21 12:39:57;;;;;;;20.90;10.80;;;4.30;99.90;;;;;;5051004;28;20564;-39
2022/11/21 12:43:10;;;;;;;25.02;11.45;;;4.20;99.90;;;;;;5051463;28;20079;-39
2022/11/21 12:45:37;;;;;;;18.90;10.55;;;3.90;99.90;;;;;;5065663;28;20025;-39
2022/11/21 12:57:11;;;;;;;17.83;9.13;;;3.30;99.90;;;;;;5070739;28;20040;-39
2022/11/21 13:00:16;;;;;;;15.73;9.07;;;3.20;99.90;;;;;;5069664;28;20028;-39
2022/11/21 13:03:03;;;;;;;14.30;9.48;;;3.10;99.90;;;;;;5065129;28;20036;-39
2022/11/21 13:05:32;;;;;;;18.50;9.23;;;3.00;99.90;;;;;;5064776;28;20377;-39
2022/11/21 13:08:02;;;;;;;19.10;10.73;;;2.90;99.90;;;;;;5069490;28;20017;-39
2022/11/21 13:10:28;;;;;;;19.65;9.73;;;2.70;99.90;;;;;;5069575;28;20111;-40
2022/11/21 13:13:02;;;;;;;18.67;9.73;;;2.70;99.90;;;;;;5070417;28;20389;-39
2022/11/21 13:15:37;;;;;;;13.43;9.10;;;2.70;99.90;;;;;;5070096;28;20025;-40
2022/11/21 13:18:11;;;;;;;16.55;9.95;;;2.70;99.90;;;;;;5070274;28;20012;-39
2022/11/21 13:20:44;;;;;;;15.35;9.30;;;2.80;99.90;;;;;;5069366;28;20017;-40
2022/11/21 13:23:40;;;;;;;16.38;8.75;;;2.80;99.90;;;;;;5069963;28;20025;-40